»·PEaware :: N101JP KSNA-KCRQ

N101JP :: KSNA-KCRQ

FLIGHT INFORMATION

Flight Status: Arrived
Operator: Privately registered:
United States
More flights under this callsign
Pilot: James T. (870)
Aircraft: PILATUS PC-12 EAGLE
(PC12)
More flights by this aircraft type
Origin: KSNA John Wayne-Orange Co
United States
Destination: KCRQ McClellan-Palomar
United States
More flights between these airports :: More routes between these airports
Route: +V25 PACIF V208 OCN
File this flight plan on PilotEdge
Remarks:
Altitude:
(Current/Filed)
70ft
Speed:
(Current/Filed)
200kts
Departed: 20-Jun-15 12:40 PM
Arrived: 20-Jun-15 01:40 PM
Distance/Time
Traveled:
44nm/0:59
Distance/Time
To Go:
Arrived

Flight Plot

Page will automatically refresh every two minutes.


Map Options




Map Legend


Flown Route
Filed Route
Departure Airport
Arrival Airport
Navaid (VOR, NDB)
Fix

Horizontal Profiles

Position Reports

Time Latitude Longitude Heading Altitude Ground
Speed
20-Jun-15 12:27 33.682401 -117.860320 118 61ft 0kts
20-Jun-15 12:28 33.682401 -117.860320 118 61ft 0kts
20-Jun-15 12:29 33.682401 -117.860320 118 61ft 0kts
20-Jun-15 12:30 33.682401 -117.860320 118 61ft 0kts
20-Jun-15 12:31 33.682401 -117.860320 118 61ft 0kts
20-Jun-15 12:32 33.682401 -117.860320 118 61ft 0kts
20-Jun-15 12:33 33.682401 -117.860320 118 61ft 0kts
20-Jun-15 12:34 33.682431 -117.860790 245 62ft 9kts
20-Jun-15 12:35 33.681405 -117.861846 211 61ft 9kts
20-Jun-15 12:36 33.680005 -117.863675 296 62ft 0kts
20-Jun-15 12:37 33.680005 -117.863675 296 62ft 0kts
20-Jun-15 12:38 33.680035 -117.863757 291 62ft 4kts
20-Jun-15 12:39 33.662683 -117.871323 188 483ft 142kts
20-Jun-15 12:40 33.620604 -117.877343 189 2178ft 158kts
20-Jun-15 12:41 33.576875 -117.884192 189 3976ft 160kts
20-Jun-15 12:42 33.532740 -117.890722 189 5736ft 161kts
20-Jun-15 12:43 33.488154 -117.896963 189 6997ft 171kts
20-Jun-15 12:44 33.449859 -117.862698 123 7009ft 207kts
20-Jun-15 12:45 33.420519 -117.801194 122 7000ft 216kts
20-Jun-15 12:46 33.390975 -117.738116 122 6996ft 217kts
20-Jun-15 12:47 33.361474 -117.675050 122 6994ft 217kts
20-Jun-15 12:48 33.331961 -117.612067 122 6990ft 217kts
20-Jun-15 12:49 33.302133 -117.548498 122 6274ft 225kts
20-Jun-15 12:50 33.271101 -117.482434 122 5011ft 221kts
20-Jun-15 12:51 33.243514 -117.423821 122 4984ft 188kts
20-Jun-15 12:52 33.234343 -117.364087 100 4990ft 178kts
20-Jun-15 12:53 33.227568 -117.306609 99 4991ft 171kts
20-Jun-15 12:54 33.221116 -117.252154 99 5307ft 176kts
20-Jun-15 12:55 33.236868 -117.193681 62 5298ft 198kts
20-Jun-15 12:56 33.261606 -117.136664 62 5291ft 184kts
20-Jun-15 12:57 33.284343 -117.084275 61 5293ft 172kts
20-Jun-15 12:58 33.303948 -117.033446 77 5293ft 167kts
20-Jun-15 12:59 33.297398 -116.978886 119 5309ft 169kts
20-Jun-15 13:00 33.262804 -116.942324 161 5320ft 168kts
20-Jun-15 13:01 33.219200 -116.940238 201 5324ft 138kts
20-Jun-15 13:02 33.186160 -116.967037 234 4357ft 155kts
20-Jun-15 13:03 33.172011 -117.007512 260 3992ft 138kts
20-Jun-15 13:04 33.164519 -117.054533 259 3092ft 131kts
20-Jun-15 13:05 33.158187 -117.094052 258 3102ft 116kts
20-Jun-15 13:06 33.152018 -117.132463 258 2780ft 120kts
20-Jun-15 13:07 33.145914 -117.170484 258 2129ft 114kts
20-Jun-15 13:08 33.139950 -117.207736 258 1484ft 113kts
20-Jun-15 13:09 33.133991 -117.244557 258 852ft 113kts
20-Jun-15 13:10 33.127429 -117.283035 260 1184ft 144kts
20-Jun-15 13:11 33.119427 -117.334844 258 2015ft 179kts
20-Jun-15 13:12 33.109390 -117.396632 258 1993ft 185kts
20-Jun-15 13:13 33.099909 -117.454798 258 1994ft 175kts
20-Jun-15 13:14 33.090403 -117.511365 257 1993ft 172kts
20-Jun-15 13:15 33.080604 -117.567096 249 1983ft 171kts
20-Jun-15 13:16 33.053141 -117.550262 65 1995ft 182kts
20-Jun-15 13:17 33.083521 -117.501553 52 1994ft 183kts
20-Jun-15 13:18 33.089831 -117.454363 162 2694ft 148kts
20-Jun-15 13:19 33.069926 -117.485588 257 3871ft 137kts
20-Jun-15 13:20 33.064253 -117.535482 276 4128ft 162kts
20-Jun-15 13:21 33.096793 -117.534209 41 5002ft 166kts
20-Jun-15 13:22 33.135596 -117.492063 41 5004ft 206kts
20-Jun-15 13:23 33.165759 -117.434227 71 5001ft 211kts
20-Jun-15 13:24 33.184528 -117.368037 71 4996ft 209kts
20-Jun-15 13:25 33.202970 -117.303118 71 4985ft 199kts
20-Jun-15 13:26 33.219986 -117.243350 71 4992ft 181kts
20-Jun-15 13:27 33.235774 -117.187626 71 4990ft 172kts
20-Jun-15 13:28 33.250667 -117.134595 71 5032ft 154kts
20-Jun-15 13:29 33.263506 -117.087921 71 5000ft 145kts
20-Jun-15 13:30 33.263555 -117.051381 148 4984ft 138kts
20-Jun-15 13:31 33.224089 -117.033606 163 4070ft 167kts
20-Jun-15 13:32 33.184155 -117.057072 224 3473ft 133kts
20-Jun-15 13:33 33.161988 -117.081486 228 3507ft 130kts
20-Jun-15 13:34 33.152760 -117.127788 258 2893ft 115kts
20-Jun-15 13:35 33.147754 -117.158920 258 2369ft 113kts
20-Jun-15 13:36 33.142009 -117.194678 258 1734ft 104kts
20-Jun-15 13:37 33.136755 -117.227337 258 1166ft 97kts
20-Jun-15 13:38 33.131738 -117.258460 258 626ft 93kts
20-Jun-15 13:39 33.128148 -117.278882 149 337ft 7kts
20-Jun-15 13:40 33.127216 -117.276122 132 337ft 4kts
20-Jun-15 13:41 33.127486 -117.276080 348 337ft 0kts
20-Jun-15 13:42 33.127486 -117.276080 348 337ft 0kts
20-Jun-15 13:43 33.127486 -117.276080 348 337ft 0kts
20-Jun-15 13:44 33.127486 -117.276080 348 337ft 0kts
20-Jun-15 13:45 33.127486 -117.276080 348 337ft 0kts
20-Jun-15 13:46 33.127486 -117.276080 348 337ft 0kts
20-Jun-15 13:47 33.127486 -117.276080 348 337ft 0kts
20-Jun-15 13:48 33.127486 -117.276080 348 337ft 0kts
20-Jun-15 13:49 33.127486 -117.276080 348 337ft 0kts
20-Jun-15 13:50 33.127486 -117.276080 348 337ft 0kts
20-Jun-15 13:51 33.127486 -117.276080 348 337ft 0kts
20-Jun-15 13:52 33.127486 -117.276080 348 337ft 0kts
20-Jun-15 13:53 33.127486 -117.276080 348 337ft 0kts

Navigation Log

Ident Type
Flight plan parsing failed, navigation log unavailable